Time;durP1;ratioP1;P1;durP2;ratioP2;P2;SDS_P1;SDS_P2;PMS_P1;PMS_P2;Temp;Humidity;BMP_temperature;BMP_pressure;BME280_temperature;BME280_humidity;BME280_pressure;Samples;Min_cycle;Max_cycle;Signal;HPM_P1;HPM_P2
2023/09/01 00:01:05;;;;;;;5.10;5.00;;;13.90;99.90;;;;;;4971611;28;20843;-68
2023/09/01 00:03:33;;;;;;;5.00;5.00;;;14.00;99.90;;;;;;4972263;28;20527;-67
2023/09/01 00:06:02;;;;;;;5.00;5.00;;;14.00;99.90;;;;;;4962137;28;20474;-69
2023/09/01 00:08:31;;;;;;;5.53;5.43;;;14.00;99.90;;;;;;4972336;28;20459;-67
2023/09/01 00:10:58;;;;;;;4.93;4.93;;;13.90;99.90;;;;;;4968151;28;20985;-67
2023/09/01 00:13:25;;;;;;;4.97;4.97;;;13.90;99.90;;;;;;4971390;28;20463;-66
2023/09/01 00:15:52;;;;;;;4.70;4.70;;;13.90;99.90;;;;;;4977827;28;20595;-66
2023/09/01 00:18:19;;;;;;;4.97;4.97;;;13.90;99.90;;;;;;4972362;28;20906;-68
2023/09/01 00:20:46;;;;;;;4.43;4.43;;;14.00;99.90;;;;;;4972292;28;20486;-67
2023/09/01 00:23:13;;;;;;;4.90;4.90;;;14.10;99.90;;;;;;4964039;28;20510;-67
2023/09/01 00:25:42;;;;;;;4.60;4.60;;;14.10;99.90;;;;;;4970983;28;20797;-67
2023/09/01 00:28:09;;;;;;;4.50;4.50;;;14.20;99.90;;;;;;4972329;28;20841;-66
2023/09/01 00:30:51;;;;;;;4.50;4.50;;;14.20;99.90;;;;;;4969665;28;20466;-67
2023/09/01 00:33:18;;;;;;;4.50;4.50;;;14.30;99.90;;;;;;4968489;28;20463;-67
2023/09/01 00:35:45;;;;;;;4.77;4.77;;;14.30;99.90;;;;;;4972120;28;20509;-68
2023/09/01 00:38:12;;;;;;;5.50;5.40;;;14.40;99.90;;;;;;4969971;28;20889;-67
2023/09/01 00:40:42;;;;;;;5.43;5.33;;;14.50;99.90;;;;;;4965160;28;20451;-67
2023/09/01 00:43:08;;;;;;;5.70;5.60;;;14.60;99.90;;;;;;4970914;28;20460;-66
2023/09/01 00:45:37;;;;;;;5.60;5.50;;;14.70;99.90;;;;;;4976556;28;20517;-68
2023/09/01 00:48:06;;;;;;;5.90;5.80;;;14.80;99.90;;;;;;4964952;28;20566;-68
2023/09/01 00:50:33;;;;;;;5.90;5.80;;;14.70;99.90;;;;;;4968854;28;20538;-66
2023/09/01 00:53:02;;;;;;;6.07;5.97;;;14.80;99.90;;;;;;4971497;28;20851;-68
2023/09/01 00:55:30;;;;;;;6.67;6.57;;;14.90;99.90;;;;;;4971897;28;20578;-67
2023/09/01 00:58:00;;;;;;;6.70;6.60;;;15.00;99.90;;;;;;4968835;28;20831;-67
2023/09/01 01:00:27;;;;;;;6.83;6.73;;;15.10;99.90;;;;;;4965525;28;20535;-67
2023/09/01 01:02:54;;;;;;;7.17;7.07;;;15.10;99.90;;;;;;4971346;28;20526;-67
2023/09/01 01:05:28;;;;;;;6.93;6.83;;;15.10;99.90;;;;;;4966892;28;20463;-69
2023/09/01 01:08:02;;;;;;;7.23;7.13;;;15.00;99.90;;;;;;4964455;28;20541;-67
2023/09/01 01:10:39;;;;;;;7.30;7.20;;;15.10;99.90;;;;;;4971588;28;20536;-66
2023/09/01 01:13:11;;;;;;;8.00;7.90;;;15.10;99.90;;;;;;4962780;28;20455;-67
2023/09/01 01:15:39;;;;;;;7.60;7.50;;;15.20;99.90;;;;;;4970710;28;20499;-66
2023/09/01 01:18:13;;;;;;;7.90;7.80;;;15.20;99.90;;;;;;4968625;28;20545;-67
2023/09/01 01:20:45;;;;;;;8.03;7.93;;;15.30;99.90;;;;;;4962872;28;20458;-67
2023/09/01 01:23:16;;;;;;;7.80;7.70;;;15.30;99.90;;;;;;4971083;28;20571;-69
2023/09/01 01:25:47;;;;;;;8.00;7.90;;;15.40;99.90;;;;;;4962443;28;20468;-66
2023/09/01 01:28:15;;;;;;;7.97;7.87;;;15.40;99.90;;;;;;4966419;28;20467;-67
2023/09/01 01:30:46;;;;;;;7.30;7.20;;;15.40;99.90;;;;;;4971848;28;20558;-67
2023/09/01 01:33:26;;;;;;;6.80;6.70;;;15.40;99.90;;;;;;4970197;28;20455;-66
2023/09/01 01:36:07;;;;;;;7.20;7.10;;;15.40;99.90;;;;;;4964884;28;20582;-67
2023/09/01 01:38:40;;;;;;;6.80;6.70;;;15.40;99.90;;;;;;4960526;28;20463;-67
2023/09/01 01:41:11;;;;;;;6.63;6.53;;;15.40;99.90;;;;;;4969027;28;20460;-68
2023/09/01 01:43:40;;;;;;;6.43;6.33;;;15.30;99.90;;;;;;4962199;28;20605;-67
2023/09/01 01:46:07;;;;;;;6.30;6.20;;;15.30;99.90;;;;;;4970575;28;20471;-68
2023/09/01 01:48:37;;;;;;;6.10;6.00;;;15.30;99.90;;;;;;4964916;28;20523;-69
2023/09/01 01:51:05;;;;;;;6.10;6.00;;;15.30;99.90;;;;;;4971200;28;20575;-67
2023/09/01 01:53:34;;;;;;;6.00;5.90;;;15.30;99.90;;;;;;4971114;28;20491;-68
2023/09/01 01:56:02;;;;;;;5.70;5.60;;;15.30;99.90;;;;;;4968070;28;20899;-68
2023/09/01 01:58:30;;;;;;;6.07;5.97;;;15.30;99.90;;;;;;4963749;28;20486;-67
2023/09/01 02:00:57;;;;;;;6.50;6.40;;;15.20;99.90;;;;;;4963285;28;20468;-68
2023/09/01 02:03:25;;;;;;;6.50;6.40;;;15.20;99.90;;;;;;4970564;28;20871;-67
2023/09/01 02:05:52;;;;;;;6.73;6.63;;;15.20;99.90;;;;;;4969261;28;20471;-68
2023/09/01 02:08:19;;;;;;;6.20;6.10;;;15.20;99.90;;;;;;4962355;28;20479;-67
2023/09/01 02:10:49;;;;;;;6.13;6.03;;;15.20;99.90;;;;;;4967039;28;20856;-68
2023/09/01 02:13:16;;;;;;;6.27;6.17;;;15.30;99.90;;;;;;4967488;28;20534;-67
2023/09/01 02:15:52;;;;;;;5.80;5.70;;;15.30;99.90;;;;;;4970773;28;20491;-68
2023/09/01 02:18:19;;;;;;;6.23;6.13;;;15.30;99.90;;;;;;4967944;28;20471;-67
2023/09/01 02:20:46;;;;;;;6.07;5.97;;;15.20;99.90;;;;;;4963923;28;20475;-68
2023/09/01 02:23:16;;;;;;;5.43;5.33;;;15.20;99.90;;;;;;4970628;28;20630;-68
2023/09/01 02:25:43;;;;;;;4.40;4.40;;;15.10;99.90;;;;;;4965190;28;20611;-67
2023/09/01 02:28:11;;;;;;;4.63;4.63;;;15.10;99.90;;;;;;4969687;28;20822;-67
2023/09/01 02:30:40;;;;;;;3.80;3.80;;;15.10;99.90;;;;;;4971850;28;20551;-68
2023/09/01 02:33:07;;;;;;;4.20;4.20;;;15.10;99.90;;;;;;4970452;28;20459;-67
2023/09/01 02:35:33;;;;;;;3.90;3.90;;;15.20;99.90;;;;;;4967332;28;20522;-68
2023/09/01 02:38:02;;;;;;;3.50;3.50;;;15.20;99.90;;;;;;4962239;28;20526;-66
2023/09/01 02:40:29;;;;;;;3.60;3.60;;;15.20;99.90;;;;;;4962076;28;20471;-66
2023/09/01 02:42:56;;;;;;;3.50;3.50;;;15.20;99.90;;;;;;4969913;28;20455;-67
2023/09/01 02:45:25;;;;;;;3.90;3.90;;;15.20;99.90;;;;;;4969752;28;20496;-68
2023/09/01 02:47:53;;;;;;;4.10;4.10;;;15.20;99.90;;;;;;4967184;28;20642;-68
2023/09/01 02:50:20;;;;;;;3.63;3.63;;;15.30;99.90;;;;;;4957397;28;20466;-67
2023/09/01 02:52:47;;;;;;;3.50;3.50;;;15.30;99.90;;;;;;4969984;28;20471;-68
2023/09/01 02:55:17;;;;;;;3.80;3.80;;;15.20;99.90;;;;;;4950628;29;20475;-68
2023/09/01 02:57:46;;;;;;;3.70;3.70;;;15.30;99.90;;;;;;4948671;29;20551;-67
2023/09/01 03:00:21;;;;;;;3.80;3.80;;;15.30;99.90;;;;;;4951943;28;20471;-67
2023/09/01 03:02:50;;;;;;;3.60;3.60;;;15.40;99.90;;;;;;4947124;29;20475;-67
2023/09/01 03:05:17;;;;;;;3.80;3.80;;;15.40;99.90;;;;;;4950551;29;21033;-66
2023/09/01 03:07:44;;;;;;;3.87;3.87;;;15.40;99.90;;;;;;4947479;29;20476;-67
2023/09/01 03:10:11;;;;;;;3.50;3.50;;;15.40;99.90;;;;;;4942795;29;20469;-66
2023/09/01 03:12:40;;;;;;;3.50;3.50;;;15.40;99.90;;;;;;4950273;28;20464;-67
2023/09/01 03:15:09;;;;;;;3.80;3.80;;;15.40;99.90;;;;;;4950554;29;20479;-67
2023/09/01 03:17:36;;;;;;;3.23;3.23;;;15.40;99.90;;;;;;4952055;29;20492;-67
2023/09/01 03:20:09;;;;;;;3.73;3.73;;;15.40;99.90;;;;;;4953866;28;20456;-68
2023/09/01 03:22:37;;;;;;;3.40;3.40;;;15.50;99.90;;;;;;4955202;29;20480;-68
2023/09/01 03:25:09;;;;;;;4.10;4.10;;;15.50;99.90;;;;;;4948426;29;20558;-68
2023/09/01 03:27:37;;;;;;;4.80;4.80;;;15.50;99.90;;;;;;4956610;28;20457;-68
2023/09/01 03:30:04;;;;;;;4.70;4.70;;;15.50;99.90;;;;;;4949876;28;20531;-67
2023/09/01 03:32:31;;;;;;;4.40;4.40;;;15.50;99.90;;;;;;4951499;28;20820;-68
2023/09/01 03:34:58;;;;;;;4.20;4.20;;;15.50;99.90;;;;;;4953603;29;20468;-68
2023/09/01 03:37:27;;;;;;;4.53;4.53;;;15.50;99.90;;;;;;4949951;29;20854;-69
2023/09/01 03:39:54;;;;;;;4.10;4.10;;;15.60;99.90;;;;;;4956756;28;20632;-67
2023/09/01 03:42:21;;;;;;;3.73;3.73;;;15.50;99.90;;;;;;4956397;29;20455;-67
2023/09/01 03:44:48;;;;;;;4.03;4.03;;;15.50;99.90;;;;;;4950573;29;20826;-67
2023/09/01 03:47:16;;;;;;;3.67;3.67;;;15.50;99.90;;;;;;4954929;28;20464;-66
2023/09/01 03:49:42;;;;;;;3.80;3.80;;;15.50;99.90;;;;;;4950770;28;20829;-67
2023/09/01 03:52:10;;;;;;;3.67;3.67;;;15.50;99.90;;;;;;4956366;28;20464;-67
2023/09/01 03:54:38;;;;;;;6.60;6.50;;;15.50;99.90;;;;;;4964292;28;21019;-68
2023/09/01 03:57:05;;;;;;;7.40;7.30;;;15.50;99.90;;;;;;4974538;28;20541;-67
2023/09/01 03:59:32;;;;;;;7.50;7.40;;;15.60;99.90;;;;;;4969866;28;20486;-67
2023/09/01 04:01:58;;;;;;;7.53;7.43;;;15.50;99.90;;;;;;4975020;28;20475;-67
2023/09/01 04:04:27;;;;;;;8.07;7.97;;;15.50;99.90;;;;;;4975682;28;20954;-67
2023/09/01 04:06:55;;;;;;;8.20;8.10;;;15.40;99.90;;;;;;4971454;28;20810;-66
2023/09/01 04:09:22;;;;;;;7.83;7.73;;;15.40;99.90;;;;;;4969508;28;20998;-66
2023/09/01 04:11:52;;;;;;;7.70;7.60;;;15.30;99.90;;;;;;4974694;28;20461;-67
2023/09/01 04:14:19;;;;;;;7.70;7.60;;;15.30;99.90;;;;;;4967247;28;20471;-67
2023/09/01 04:16:46;;;;;;;8.20;8.10;;;15.40;99.90;;;;;;4975252;28;20498;-67
2023/09/01 04:19:13;;;;;;;8.00;7.90;;;15.40;99.90;;;;;;4975542;28;20463;-67
2023/09/01 04:21:40;;;;;;;8.37;8.27;;;15.40;99.90;;;;;;4968993;28;20491;-67
2023/09/01 04:24:08;;;;;;;8.57;8.47;;;15.40;99.90;;;;;;4974883;28;20817;-67
2023/09/01 04:26:36;;;;;;;8.20;8.10;;;15.40;99.90;;;;;;4973363;28;20462;-68
2023/09/01 04:29:06;;;;;;;7.97;7.87;;;15.30;99.90;;;;;;4970707;28;20451;-68
2023/09/01 04:31:33;;;;;;;8.03;7.93;;;15.30;99.90;;;;;;4965312;28;21296;-67
2023/09/01 04:34:00;;;;;;;7.83;7.73;;;15.20;99.90;;;;;;4972243;28;20518;-66
2023/09/01 04:36:27;;;;;;;8.60;8.50;;;15.30;99.90;;;;;;4972312;28;20491;-67
2023/09/01 04:38:54;;;;;;;8.13;8.03;;;15.40;99.90;;;;;;4963632;28;21110;-67
2023/09/01 04:41:21;;;;;;;7.60;7.50;;;15.40;99.90;;;;;;4971800;28;20495;-68
2023/09/01 04:43:48;;;;;;;7.97;7.87;;;15.40;99.90;;;;;;4972560;28;20498;-67
2023/09/01 04:46:17;;;;;;;8.30;8.20;;;15.40;99.90;;;;;;4961807;28;20468;-68
2023/09/01 04:48:44;;;;;;;7.80;7.70;;;15.40;99.90;;;;;;4971665;28;20518;-69
2023/09/01 04:51:12;;;;;;;7.63;7.53;;;15.50;99.90;;;;;;4964805;28;20468;-68
2023/09/01 04:53:42;;;;;;;7.10;7.00;;;15.40;99.90;;;;;;4971993;28;20832;-67
2023/09/01 04:56:09;;;;;;;7.10;7.00;;;15.30;99.90;;;;;;4969930;28;20463;-67
2023/09/01 05:01:18;;;;;;;6.87;6.77;;;15.30;99.90;;;;;;4965146;28;20460;-68
2023/09/01 05:03:45;;;;;;;6.30;6.20;;;15.30;99.90;;;;;;4963740;28;20926;-68
2023/09/01 05:06:12;;;;;;;6.20;6.10;;;15.20;99.90;;;;;;4962400;28;21278;-67
2023/09/01 05:08:39;;;;;;;6.50;6.40;;;15.20;99.90;;;;;;4957063;28;20993;-67
2023/09/01 05:11:05;;;;;;;6.10;6.00;;;15.30;99.90;;;;;;4961473;28;20890;-67
2023/09/01 05:13:33;;;;;;;6.80;6.70;;;15.30;99.90;;;;;;4968885;28;20505;-67
2023/09/01 05:16:00;;;;;;;6.43;6.33;;;15.30;99.90;;;;;;4968532;28;20856;-67
2023/09/01 05:18:28;;;;;;;6.70;6.60;;;15.40;99.90;;;;;;4969421;28;20554;-67
2023/09/01 05:20:55;;;;;;;6.20;6.10;;;15.40;99.90;;;;;;4969148;28;20943;-67
2023/09/01 05:23:25;;;;;;;5.53;5.43;;;15.50;99.90;;;;;;4961070;28;20460;-68
2023/09/01 05:25:53;;;;;;;5.83;5.73;;;15.40;99.90;;;;;;4964787;28;20879;-68
2023/09/01 05:28:22;;;;;;;5.20;5.10;;;15.40;99.90;;;;;;4968580;28;20485;-67
2023/09/01 05:30:48;;;;;;;5.93;5.83;;;15.40;99.90;;;;;;4969384;28;20467;-68
2023/09/01 05:33:15;;;;;;;6.03;5.93;;;15.50;99.90;;;;;;4965877;28;20483;-68
2023/09/01 05:35:43;;;;;;;5.90;5.80;;;15.60;99.90;;;;;;4959184;28;20834;-67
2023/09/01 05:38:10;;;;;;;5.90;5.80;;;15.70;99.90;;;;;;4954476;28;20511;-67
2023/09/01 05:40:37;;;;;;;4.60;4.60;;;15.80;99.90;;;;;;4955408;28;20478;-67
2023/09/01 05:43:06;;;;;;;4.87;4.87;;;15.70;99.90;;;;;;4962021;28;20464;-67
2023/09/01 05:45:33;;;;;;;5.10;5.00;;;15.80;99.90;;;;;;4961362;28;20476;-68
2023/09/01 05:48:00;;;;;;;3.93;3.93;;;15.80;99.90;;;;;;4961342;28;20463;-67
2023/09/01 05:50:26;;;;;;;4.33;4.33;;;15.70;99.90;;;;;;4965593;28;20468;-67
2023/09/01 05:52:55;;;;;;;4.10;4.10;;;15.70;99.90;;;;;;4957539;28;20475;-67
2023/09/01 05:55:22;;;;;;;4.00;4.00;;;15.80;99.90;;;;;;4959773;28;20528;-66
2023/09/01 05:57:48;;;;;;;4.00;4.00;;;15.90;99.90;;;;;;4962970;28;20602;-67
2023/09/01 06:00:18;;;;;;;3.93;3.93;;;15.90;99.90;;;;;;4959494;28;20459;-67
2023/09/01 06:02:45;;;;;;;3.53;3.53;;;15.90;99.90;;;;;;4959549;28;20478;-66
2023/09/01 06:05:11;;;;;;;3.30;3.30;;;16.00;99.90;;;;;;4956205;28;22866;-68
2023/09/01 06:07:39;;;;;;;3.93;3.93;;;16.00;99.90;;;;;;4965706;28;20506;-67
2023/09/01 06:10:09;;;;;;;3.43;3.43;;;16.10;99.90;;;;;;4962616;28;20869;-67
2023/09/01 06:12:36;;;;;;;4.03;4.03;;;16.10;99.90;;;;;;4964112;28;20455;-68
2023/09/01 06:15:03;;;;;;;3.50;3.50;;;16.20;99.90;;;;;;4959913;28;20475;-68
2023/09/01 06:17:31;;;;;;;3.10;3.10;;;16.10;99.90;;;;;;4963107;28;21021;-68
2023/09/01 06:19:57;;;;;;;3.40;3.40;;;16.10;99.90;;;;;;4958359;28;20478;-68
2023/09/01 06:22:24;;;;;;;4.10;4.10;;;16.10;99.90;;;;;;4954160;28;20498;-67
2023/09/01 06:24:51;;;;;;;3.63;3.63;;;16.30;99.90;;;;;;4959405;28;20476;-67
2023/09/01 06:27:19;;;;;;;3.53;3.53;;;16.40;99.90;;;;;;4962400;28;20460;-68
2023/09/01 06:29:47;;;;;;;3.50;3.50;;;16.30;99.90;;;;;;4956457;28;20539;-68
2023/09/01 06:32:13;;;;;;;3.83;3.83;;;16.30;99.90;;;;;;4962168;28;20644;-67
2023/09/01 06:34:41;;;;;;;3.67;3.67;;;16.40;99.90;;;;;;4959883;28;20473;-67
2023/09/01 06:37:09;;;;;;;3.93;3.93;;;16.30;99.90;;;;;;4955222;28;20484;-67
2023/09/01 06:39:36;;;;;;;4.20;4.20;;;16.40;99.90;;;;;;4956380;28;20463;-67
2023/09/01 06:42:06;;;;;;;4.00;4.00;;;16.40;99.90;;;;;;4959316;28;21396;-67
2023/09/01 06:44:34;;;;;;;4.37;4.37;;;16.40;99.90;;;;;;4961199;28;20471;-67
2023/09/01 06:47:00;;;;;;;4.93;4.93;;;16.50;99.90;;;;;;4963955;28;20879;-68
2023/09/01 06:49:28;;;;;;;5.27;5.17;;;16.60;99.90;;;;;;4963080;28;20966;-67
2023/09/01 06:51:56;;;;;;;4.57;4.57;;;16.70;99.90;;;;;;4961305;28;20471;-68
2023/09/01 06:54:23;;;;;;;4.67;4.67;;;16.80;99.90;;;;;;4957549;28;20480;-67
2023/09/01 06:56:50;;;;;;;5.13;5.10;;;16.90;99.90;;;;;;4960710;28;20558;-67
2023/09/01 06:59:16;;;;;;;4.53;4.53;;;17.00;99.90;;;;;;4958371;28;21028;-67
2023/09/01 07:01:45;;;;;;;4.90;4.90;;;17.10;99.90;;;;;;4965703;28;20876;-67
2023/09/01 07:04:12;;;;;;;5.30;5.20;;;17.20;99.90;;;;;;4970673;28;20455;-67
2023/09/01 07:06:39;;;;;;;5.30;5.20;;;17.20;99.90;;;;;;4955143;28;20472;-67
2023/09/01 07:09:06;;;;;;;4.90;4.90;;;17.20;99.90;;;;;;4963390;28;20968;-67
2023/09/01 07:11:33;;;;;;;5.53;5.43;;;17.20;99.90;;;;;;4963930;28;20472;-68
2023/09/01 07:14:00;;;;;;;5.60;5.50;;;17.30;99.90;;;;;;4955165;28;20471;-68
2023/09/01 07:16:27;;;;;;;5.60;5.50;;;17.30;99.90;;;;;;4959155;28;20526;-69
2023/09/01 07:18:57;;;;;;;5.90;5.80;;;17.40;99.90;;;;;;4966399;28;20530;-68
2023/09/01 07:21:24;;;;;;;5.70;5.60;;;17.40;99.90;;;;;;4961177;28;20484;-68
2023/09/01 07:23:51;;;;;;;5.40;5.30;;;17.50;99.90;;;;;;4952137;28;20526;-66
2023/09/01 07:26:18;;;;;;;5.60;5.50;;;17.50;99.90;;;;;;4961781;28;20459;-67
2023/09/01 07:28:45;;;;;;;5.80;5.70;;;17.40;99.90;;;;;;4968380;28;20974;-67
2023/09/01 07:31:13;;;;;;;5.67;5.57;;;17.40;99.90;;;;;;4960844;28;20475;-67
2023/09/01 07:33:41;;;;;;;5.80;5.70;;;17.40;99.90;;;;;;4968112;28;21014;-67
2023/09/01 07:36:11;;;;;;;5.77;5.67;;;17.40;99.90;;;;;;4965092;28;20466;-68
2023/09/01 07:38:38;;;;;;;5.90;5.80;;;17.30;99.90;;;;;;4966116;28;20494;-67
2023/09/01 07:41:06;;;;;;;4.80;4.80;;;17.30;99.90;;;;;;4956822;28;20507;-67
2023/09/01 07:43:35;;;;;;;4.80;4.80;;;17.10;99.90;;;;;;4958049;28;20471;-68
2023/09/01 07:46:03;;;;;;;5.73;5.63;;;17.20;99.90;;;;;;4969975;28;20464;-67
2023/09/01 07:48:30;;;;;;;8.40;8.30;;;17.00;99.90;;;;;;4966945;28;20573;-66
2023/09/01 07:50:57;;;;;;;11.17;10.87;;;16.90;99.90;;;;;;4960640;28;20461;-67
2023/09/01 07:53:25;;;;;;;14.00;13.50;;;16.90;99.90;;;;;;4954464;28;20492;-67
2023/09/01 07:55:52;;;;;;;13.50;13.00;;;17.00;99.90;;;;;;4958230;28;20524;-67
2023/09/01 07:58:20;;;;;;;12.63;12.23;;;16.80;99.90;;;;;;4953357;28;20494;-67
2023/09/01 08:00:47;;;;;;;12.50;12.10;;;16.70;99.90;;;;;;4961635;28;20459;-68
2023/09/01 08:03:15;;;;;;;11.70;11.40;;;16.60;99.90;;;;;;4961806;28;20478;-67
2023/09/01 08:05:42;;;;;;;11.20;10.90;;;16.50;99.90;;;;;;4964498;28;20455;-67
2023/09/01 08:08:12;;;;;;;10.83;10.53;;;16.40;99.90;;;;;;4966665;28;20474;-68
2023/09/01 08:10:40;;;;;;;10.50;10.27;;;16.40;99.90;;;;;;4963653;28;20475;-68
2023/09/01 08:13:08;;;;;;;9.80;9.60;;;16.30;99.90;;;;;;4962925;28;20463;-67
2023/09/01 08:15:35;;;;;;;9.27;9.07;;;16.30;99.90;;;;;;4968434;28;20464;-67
2023/09/01 08:18:03;;;;;;;8.60;8.50;;;16.30;99.90;;;;;;4962820;28;21019;-67
2023/09/01 08:20:31;;;;;;;8.30;8.20;;;16.40;99.90;;;;;;4965083;28;20471;-67
2023/09/01 08:22:57;;;;;;;8.03;7.93;;;16.30;99.90;;;;;;4964395;28;20491;-67
2023/09/01 08:25:28;;;;;;;8.20;8.10;;;16.30;99.90;;;;;;4963706;28;20468;-66
2023/09/01 08:27:56;;;;;;;7.50;7.40;;;16.40;99.90;;;;;;4959859;28;20470;-67
2023/09/01 08:30:23;;;;;;;7.20;7.10;;;16.40;99.90;;;;;;4967852;28;20474;-67
2023/09/01 08:32:50;;;;;;;7.27;7.17;;;16.50;99.90;;;;;;4956929;28;20471;-67
2023/09/01 08:35:17;;;;;;;7.67;7.57;;;16.60;99.90;;;;;;4962915;28;20475;-67
2023/09/01 08:37:43;;;;;;;7.60;7.50;;;16.70;99.90;;;;;;4968924;28;20479;-67
2023/09/01 08:40:12;;;;;;;7.73;7.63;;;16.80;99.90;;;;;;4965059;28;20477;-68
2023/09/01 08:42:46;;;;;;;8.57;8.47;;;16.80;99.90;;;;;;4969057;28;20546;-67
2023/09/01 08:45:14;;;;;;;8.20;8.10;;;16.70;99.90;;;;;;4967325;28;20475;-67
2023/09/01 08:47:47;;;;;;;8.50;8.40;;;16.80;99.90;;;;;;4964283;28;20553;-67
2023/09/01 08:50:15;;;;;;;8.60;8.50;;;16.90;99.90;;;;;;4960623;28;20469;-68
2023/09/01 08:52:44;;;;;;;7.70;7.60;;;16.80;99.90;;;;;;4959008;28;20495;-69
2023/09/01 08:55:13;;;;;;;8.30;8.20;;;16.80;99.90;;;;;;4971708;28;20487;-67
2023/09/01 08:57:40;;;;;;;7.50;7.40;;;16.80;99.90;;;;;;4966617;28;20460;-68
2023/09/01 09:00:08;;;;;;;7.57;7.47;;;16.70;99.90;;;;;;4964566;28;20477;-67
2023/09/01 09:02:41;;;;;;;6.93;6.83;;;16.60;99.90;;;;;;4964926;28;20559;-68
2023/09/01 09:05:10;;;;;;;7.10;7.00;;;16.60;99.90;;;;;;4955099;28;20621;-68
2023/09/01 09:07:38;;;;;;;6.70;6.60;;;16.60;99.90;;;;;;4961199;28;21025;-68
2023/09/01 09:10:06;;;;;;;6.57;6.47;;;16.50;99.90;;;;;;4974158;28;20463;-68
2023/09/01 09:12:38;;;;;;;6.20;6.10;;;16.50;99.90;;;;;;4965287;28;20688;-68
2023/09/01 09:15:06;;;;;;;6.17;6.07;;;16.50;99.90;;;;;;4961401;28;20976;-67
2023/09/01 09:17:43;;;;;;;5.80;5.70;;;16.50;99.90;;;;;;4957624;28;20478;-68
2023/09/01 09:20:12;;;;;;;6.50;6.40;;;16.50;99.90;;;;;;4969233;28;20491;-69
2023/09/01 09:22:53;;;;;;;6.27;6.17;;;16.60;99.90;;;;;;4970468;28;20488;-70
2023/09/01 09:25:25;;;;;;;6.10;6.00;;;16.60;99.90;;;;;;4964281;28;20468;-68
2023/09/01 09:27:53;;;;;;;6.13;6.03;;;16.70;99.90;;;;;;4971269;28;20495;-68
2023/09/01 09:30:20;;;;;;;6.50;6.40;;;16.80;99.90;;;;;;4966900;28;20467;-68
2023/09/01 09:33:01;;;;;;;7.10;7.00;;;16.90;99.90;;;;;;4961636;28;20524;-68
2023/09/01 09:35:28;;;;;;;6.07;5.97;;;16.90;99.90;;;;;;4965161;28;20576;-68
2023/09/01 09:37:58;;;;;;;6.47;6.37;;;16.80;99.90;;;;;;4970959;28;20483;-68
2023/09/01 09:40:25;;;;;;;6.37;6.27;;;16.90;99.90;;;;;;4967523;28;20548;-68
2023/09/01 09:42:52;;;;;;;6.47;6.37;;;16.80;99.90;;;;;;4967842;28;20456;-68
2023/09/01 09:45:28;;;;;;;6.70;6.60;;;16.90;99.90;;;;;;4961947;28;20500;-69
2023/09/01 09:47:57;;;;;;;6.10;6.00;;;17.00;99.90;;;;;;4968516;28;20474;-69
2023/09/01 09:50:25;;;;;;;6.07;5.97;;;17.10;99.90;;;;;;4962822;28;20476;-68
2023/09/01 09:52:57;;;;;;;6.00;5.90;;;17.20;99.90;;;;;;4958937;28;20478;-68
2023/09/01 09:55:26;;;;;;;5.40;5.30;;;17.20;99.90;;;;;;4961695;28;20467;-68
2023/09/01 09:58:02;;;;;;;5.73;5.63;;;17.40;99.90;;;;;;4957088;28;20467;-68
2023/09/01 10:00:32;;;;;;;5.20;5.10;;;17.50;99.90;;;;;;4957019;28;20571;-68
2023/09/01 10:03:03;;;;;;;6.00;5.90;;;17.40;99.90;;;;;;4965397;28;20550;-68
2023/09/01 10:05:32;;;;;;;6.40;6.30;;;17.60;99.90;;;;;;4959451;28;20504;-67
2023/09/01 10:08:02;;;;;;;5.73;5.63;;;17.70;99.90;;;;;;4956520;28;21049;-68
2023/09/01 10:10:30;;;;;;;6.10;6.00;;;17.80;99.90;;;;;;4971561;28;20824;-68
2023/09/01 10:12:59;;;;;;;5.90;5.80;;;17.80;99.90;;;;;;4962014;28;20865;-67
2023/09/01 10:15:26;;;;;;;6.20;6.10;;;17.90;99.90;;;;;;4972377;28;20575;-69
2023/09/01 10:17:54;;;;;;;6.73;6.63;;;18.00;99.90;;;;;;4970406;28;20808;-68
2023/09/01 10:20:24;;;;;;;6.73;6.63;;;18.10;99.90;;;;;;4960136;28;20563;-67
2023/09/01 10:22:51;;;;;;;7.20;7.10;;;18.20;99.90;;;;;;4955878;28;20888;-68
2023/09/01 10:25:19;;;;;;;7.13;7.03;;;18.30;99.90;;;;;;4966997;28;20463;-67
2023/09/01 10:28:04;;;;;;;6.90;6.80;;;18.40;99.90;;;;;;4964975;28;20559;-67
2023/09/01 10:30:32;;;;;;;7.80;7.70;;;18.50;99.90;;;;;;4957804;28;20559;-66
2023/09/01 10:33:25;;;;;;;8.40;8.30;;;18.60;99.90;;;;;;4959355;28;20471;-69
2023/09/01 10:35:57;;;;;;;8.27;8.17;;;18.80;99.90;;;;;;4971014;28;20470;-67
2023/09/01 10:38:37;;;;;;;8.50;8.40;;;18.90;99.90;;;;;;4961771;28;21064;-67
2023/09/01 10:41:04;;;;;;;8.10;8.00;;;18.90;99.90;;;;;;4966470;28;20490;-67
2023/09/01 10:43:53;;;;;;;8.40;8.30;;;18.70;99.90;;;;;;4967413;28;20528;-67
2023/09/01 10:46:27;;;;;;;7.90;7.80;;;18.60;99.90;;;;;;4959861;28;20460;-68
2023/09/01 10:48:55;;;;;;;7.70;7.60;;;18.70;99.90;;;;;;4958360;28;20566;-67
2023/09/01 10:51:27;;;;;;;8.10;8.00;;;18.70;99.90;;;;;;4962925;28;20546;-67
2023/09/01 10:53:55;;;;;;;8.73;8.63;;;18.70;99.90;;;;;;4959870;28;20922;-69
2023/09/01 10:56:22;;;;;;;8.40;8.30;;;18.70;99.90;;;;;;4963711;28;20875;-67
2023/09/01 10:58:50;;;;;;;8.57;8.47;;;18.70;99.90;;;;;;4967174;28;20526;-67
2023/09/01 11:01:42;;;;;;;7.70;7.60;;;18.70;99.90;;;;;;4964279;28;20478;-67
2023/09/01 11:04:33;;;;;;;7.47;7.37;;;18.60;99.90;;;;;;4957349;28;20471;-68
2023/09/01 11:07:08;;;;;;;7.60;7.50;;;18.60;99.90;;;;;;4962726;28;20835;-68
2023/09/01 11:09:57;;;;;;;7.20;7.10;;;18.40;99.90;;;;;;4966795;28;20459;-67
2023/09/01 11:12:35;;;;;;;7.40;7.30;;;18.50;99.90;;;;;;4965758;28;20522;-67
2023/09/01 11:15:04;;;;;;;7.80;7.70;;;18.50;99.90;;;;;;4955489;28;20549;-68
2023/09/01 11:17:49;;;;;;;7.77;7.67;;;18.50;99.90;;;;;;4965858;28;21022;-67
2023/09/01 11:20:19;;;;;;;7.50;7.40;;;18.40;99.90;;;;;;4965946;28;21065;-67
2023/09/01 11:22:47;;;;;;;7.83;7.73;;;18.40;99.90;;;;;;4967634;28;20507;-67
2023/09/01 11:25:16;;;;;;;7.90;7.80;;;18.60;99.90;;;;;;4963001;28;20550;-67
2023/09/01 11:27:47;;;;;;;7.50;7.40;;;18.70;99.90;;;;;;4960037;28;20472;-68
2023/09/01 11:30:16;;;;;;;8.07;7.97;;;18.80;99.90;;;;;;4967482;28;20455;-68
2023/09/01 11:32:43;;;;;;;7.50;7.40;;;18.90;99.90;;;;;;4966743;28;20460;-68
2023/09/01 11:35:22;;;;;;;7.50;7.40;;;18.90;99.90;;;;;;4960429;28;20563;-68
2023/09/01 11:37:50;;;;;;;8.17;8.07;;;19.00;99.90;;;;;;4968504;28;20488;-67
2023/09/01 11:40:18;;;;;;;7.70;7.60;;;19.10;99.90;;;;;;4968471;28;20822;-68
2023/09/01 11:42:46;;;;;;;8.57;8.47;;;19.20;99.90;;;;;;4970526;28;20463;-67
2023/09/01 11:45:13;;;;;;;7.87;7.77;;;19.20;99.90;;;;;;4964224;28;20508;-68
2023/09/01 11:47:40;;;;;;;8.37;8.27;;;19.40;99.90;;;;;;4972902;28;20471;-68
2023/09/01 11:50:13;;;;;;;8.23;8.13;;;19.30;99.90;;;;;;4972163;28;20471;-67
2023/09/01 11:52:56;;;;;;;8.70;8.60;;;19.60;99.90;;;;;;4971968;28;20459;-68
2023/09/01 11:55:34;;;;;;;7.83;7.73;;;19.80;99.90;;;;;;4965003;28;20562;-68
2023/09/01 11:58:02;;;;;;;8.60;8.50;;;20.00;99.90;;;;;;4960131;28;20555;-67
2023/09/01 12:00:31;;;;;;;8.80;8.70;;;20.10;99.90;;;;;;4965548;28;21065;-67
2023/09/01 12:02:59;;;;;;;9.30;9.10;;;20.20;99.90;;;;;;4971291;28;20466;-67
2023/09/01 12:05:30;;;;;;;9.90;9.70;;;20.10;99.90;;;;;;4968092;28;20477;-67
2023/09/01 12:08:01;;;;;;;10.40;10.20;;;20.00;99.90;;;;;;4959675;28;20550;-66
2023/09/01 12:10:28;;;;;;;10.10;9.90;;;20.00;99.90;;;;;;4970943;28;20550;-66
2023/09/01 12:13:09;;;;;;;9.70;9.50;;;20.00;99.90;;;;;;4961431;28;20471;-67
2023/09/01 12:15:59;;;;;;;11.13;10.83;;;20.10;99.90;;;;;;4966289;28;20471;-67
2023/09/01 12:18:27;;;;;;;11.10;10.80;;;20.00;99.90;;;;;;4958456;28;20471;-66
2023/09/01 12:20:55;;;;;;;11.53;11.23;;;19.90;99.90;;;;;;4970700;28;20470;-66
2023/09/01 12:23:27;;;;;;;12.20;11.90;;;19.90;99.90;;;;;;4965541;28;20537;-69
2023/09/01 12:25:55;;;;;;;11.20;10.90;;;19.80;99.90;;;;;;4962583;28;20475;-68
2023/09/01 12:28:22;;;;;;;9.70;9.50;;;19.80;99.90;;;;;;4967545;28;20518;-69
2023/09/01 12:30:50;;;;;;;10.20;10.00;;;19.70;99.90;;;;;;4963204;28;20728;-68
2023/09/01 12:33:18;;;;;;;10.70;10.50;;;19.70;99.90;;;;;;4968422;28;20827;-67
2023/09/01 12:35:45;;;;;;;10.70;10.50;;;19.70;99.90;;;;;;4964396;28;20522;-68
2023/09/01 12:38:11;;;;;;;10.70;10.50;;;19.60;99.90;;;;;;4968809;28;20466;-69
2023/09/01 12:40:40;;;;;;;10.30;10.10;;;19.50;99.90;;;;;;4962603;28;20511;-67
2023/09/01 12:43:07;;;;;;;10.40;10.20;;;19.50;99.90;;;;;;4964995;28;20538;-68
2023/09/01 12:45:34;;;;;;;9.97;9.77;;;19.60;99.90;;;;;;4963346;28;20465;-67
2023/09/01 12:48:01;;;;;;;10.10;9.90;;;19.50;99.90;;;;;;4960688;28;20476;-68
2023/09/01 12:50:28;;;;;;;11.10;10.80;;;19.30;99.90;;;;;;4959827;28;20471;-68
2023/09/01 12:52:55;;;;;;;10.50;10.30;;;19.30;99.90;;;;;;4952804;28;20469;-68
2023/09/01 12:55:24;;;;;;;10.00;9.80;;;19.30;99.90;;;;;;4961580;28;20493;-68
2023/09/01 12:57:53;;;;;;;10.40;10.20;;;19.10;99.90;;;;;;4963999;28;20470;-67